Millennium Tender — WDF6464 — position and weather

sailwx.info

Track history (hours):
 
Tides and Currents Weather Stations Pressure Air Temp Water Temp Dewpoint Dewpoint Depression Visibility Wind Speed Wind Dir Waves Ship Positions

Millennium Tender

Owner: Harley Marine Services, INC, Seattle, WA. More information available from US FCC via Universal Licensing System and Coast Guard Vessel Documentation Center.

Last reported at 2018-Apr-17 14:30 UTC. Time now 2018-Apr-21 07:55 UTC.
Position N 33°44' W 118°16'.

Type: Port tender. MMSI: 367474540.

Date/timePositionNaut miles runAvg speedWind from/ knotsBaromVisibWave heightAir tempDewpointWater temp
2018-Apr-17 14:30N 33°44' W 118°16'2 4.3
2018-Apr-17 13:59N 33°45' W 118°13'1 1.4
2018-Apr-17 13:30N 33°44' W 118°13'2 4.1
2018-Apr-17 13:00N 33°44' W 118°16'0 0.0
2018-Apr-15 13:55N 33°44' W 118°16'2 4.9
2018-Apr-15 13:29N 33°43' W 118°13'2 4.1
2018-Apr-15 13:00N 33°44' W 118°16'0 0.3
2018-Apr-15 12:30N 33°44' W 118°16'0 0.0
2018-Apr-14 02:24N 33°44' W 118°16'2 4.7
2018-Apr-14 02:00N 33°43' W 118°14'2 3.6
2018-Apr-14 01:31N 33°45' W 118°14'2 3.4
2018-Apr-14 01:00N 33°44' W 118°16'0 0.3
2018-Apr-14 00:30N 33°44' W 118°16'  
2018-Apr-10 15:19N 33°44' W 118°16'1 4.9
2018-Apr-10 15:00N 33°43' W 118°14'3 6.4
2018-Apr-10 14:30N 33°44' W 118°11'3 5.7
2018-Apr-10 14:00N 33°46' W 118°13'2 4.7
2018-Apr-10 13:30N 33°44' W 118°14'2 3.6
2018-Apr-10 13:00N 33°44' W 118°16'0 0.0
2018-Apr-09 02:27N 33°44' W 118°16'2 5.4
2018-Apr-09 01:59N 33°43' W 118°13'2 3.5
2018-Apr-09 01:30N 33°44' W 118°11'4 7.9
2018-Apr-09 01:00N 33°44' W 118°16'0 0.0
2018-Apr-08 14:01N 33°44' W 118°16'0 0.0
2018-Apr-08 14:00N 33°44' W 118°16'2 4.6
2018-Apr-08 13:30N 33°44' W 118°13'2 4.1
2018-Apr-08 13:00N 33°44' W 118°16'  
Track history (hours):
 
Tides and Currents Weather Stations Pressure Air Temp Water Temp Dewpoint Dewpoint Depression Visibility Wind Speed Wind Dir Waves Ship Positions

Millennium Tender

Owner: Harley Marine Services, INC, Seattle, WA. More information available from US FCC via Universal Licensing System and Coast Guard Vessel Documentation Center.

Last reported at 2018-Apr-17 14:30 UTC. Time now 2018-Apr-21 07:55 UTC.
Position N 33°44' W 118°16'.

Type: Port tender. MMSI: 367474540.

Date/timePositionNaut miles runAvg speedWind from/ knotsBaromVisibWave heightAir tempDewpointWater temp
2018-Apr-17 14:30N 33°44' W 118°16'2 4.3
2018-Apr-17 13:59N 33°45' W 118°13'1 1.4
2018-Apr-17 13:30N 33°44' W 118°13'2 4.1
2018-Apr-17 13:00N 33°44' W 118°16'0 0.0
2018-Apr-15 13:55N 33°44' W 118°16'2 4.9
2018-Apr-15 13:29N 33°43' W 118°13'2 4.1
2018-Apr-15 13:00N 33°44' W 118°16'0 0.3
2018-Apr-15 12:30N 33°44' W 118°16'0 0.0
2018-Apr-14 02:24N 33°44' W 118°16'2 4.7
2018-Apr-14 02:00N 33°43' W 118°14'2 3.6
2018-Apr-14 01:31N 33°45' W 118°14'2 3.4
2018-Apr-14 01:00N 33°44' W 118°16'0 0.3
2018-Apr-14 00:30N 33°44' W 118°16'  
2018-Apr-10 15:19N 33°44' W 118°16'1 4.9
2018-Apr-10 15:00N 33°43' W 118°14'3 6.4
2018-Apr-10 14:30N 33°44' W 118°11'3 5.7
2018-Apr-10 14:00N 33°46' W 118°13'2 4.7
2018-Apr-10 13:30N 33°44' W 118°14'2 3.6
2018-Apr-10 13:00N 33°44' W 118°16'0 0.0
2018-Apr-09 02:27N 33°44' W 118°16'2 5.4
2018-Apr-09 01:59N 33°43' W 118°13'2 3.5
2018-Apr-09 01:30N 33°44' W 118°11'4 7.9
2018-Apr-09 01:00N 33°44' W 118°16'0 0.0
2018-Apr-08 14:01N 33°44' W 118°16'0 0.0
2018-Apr-08 14:00N 33°44' W 118°16'2 4.6
2018-Apr-08 13:30N 33°44' W 118°13'2 4.1
2018-Apr-08 13:00N 33°44' W 118°16'  

Dump ship's entire track history